createdAt,value
2023-05-18T00:00:25.172Z,101027.89
2023-05-18T00:05:49.583Z,101025.41
2023-05-18T00:10:52.678Z,101026.46
2023-05-18T00:15:56.011Z,101023.36
2023-05-18T00:20:59.266Z,101025.27
2023-05-18T00:26:03.240Z,101025.28
2023-05-18T00:31:07.476Z,101025.27
2023-05-18T00:36:10.787Z,101026.33
2023-05-18T00:41:13.818Z,101028.94
2023-05-18T00:46:16.762Z,101038.14
2023-05-18T00:51:21.539Z,101041.12
2023-05-18T00:56:25.168Z,101041.48
2023-05-18T01:01:31.206Z,101047.39
2023-05-18T01:06:37.844Z,101049.48
2023-05-18T01:11:45.054Z,101053.10
2023-05-18T01:16:57.113Z,101058.62
2023-05-18T01:22:22.496Z,101061.66
2023-05-18T01:27:26.223Z,101060.52
2023-05-18T01:32:29.370Z,101058.13
2023-05-18T01:37:32.354Z,101066.45
2023-05-18T01:42:44.962Z,101070.59
2023-05-18T01:47:49.386Z,101061.60
2023-05-18T01:52:58.447Z,101065.48
2023-05-18T01:58:03.509Z,101066.62
2023-05-18T02:03:06.885Z,101071.92
2023-05-18T02:08:09.862Z,101081.37
2023-05-18T02:13:12.835Z,101085.73
2023-05-18T02:18:16.859Z,101085.92
2023-05-18T02:23:19.881Z,101086.30
2023-05-18T02:28:23.440Z,101082.85
2023-05-18T02:33:26.758Z,101085.67
2023-05-18T02:38:29.914Z,101086.25
2023-05-18T02:43:32.965Z,101083.77
2023-05-18T02:48:36.038Z,101088.92
2023-05-18T02:53:39.037Z,101095.88
2023-05-18T02:58:43.994Z,101100.42
2023-05-18T03:03:47.552Z,101108.98
2023-05-18T03:08:51.542Z,101116.76
2023-05-18T03:13:55.074Z,101116.80
2023-05-18T03:18:59.383Z,101121.52
2023-05-18T03:24:03.750Z,101127.12
2023-05-18T03:29:06.754Z,101131.75
2023-05-18T03:34:09.755Z,101142.16
2023-05-18T03:39:13.267Z,101149.54
2023-05-18T03:44:16.478Z,101153.88
2023-05-18T03:49:19.494Z,101168.02
2023-05-18T03:54:24.215Z,101167.96
2023-05-18T03:59:27.342Z,101169.05
2023-05-18T04:04:31.373Z,101181.49
2023-05-18T04:09:36.632Z,101187.69
2023-05-18T04:14:42.527Z,101189.48
2023-05-18T04:19:46.432Z,101197.30
2023-05-18T04:24:49.440Z,101202.69
2023-05-18T04:29:52.453Z,101209.33
2023-05-18T04:34:58.831Z,101211.55
2023-05-18T04:40:07.942Z,101220.04
2023-05-18T04:45:19.320Z,101223.27
2023-05-18T04:50:24.098Z,101225.61
2023-05-18T04:55:28.565Z,101226.42
2023-05-18T05:00:32.504Z,101234.95
2023-05-18T05:05:36.032Z,101228.20
2023-05-18T05:10:39.060Z,101235.51
2023-05-18T05:15:42.309Z,101235.81
2023-05-18T05:20:46.064Z,101232.78
2023-05-18T05:25:49.374Z,101232.20
2023-05-18T05:30:52.596Z,101228.24
2023-05-18T05:35:55.901Z,101230.60
2023-05-18T05:40:59.313Z,101232.55
2023-05-18T05:46:02.528Z,101238.48
2023-05-18T05:51:05.638Z,101242.44
2023-05-18T05:56:09.093Z,101246.06
2023-05-18T06:01:12.574Z,101246.14
2023-05-18T06:06:15.992Z,101245.00
2023-05-18T06:11:21.352Z,101241.60
2023-05-18T06:16:25.689Z,101245.16
2023-05-18T06:21:28.900Z,101255.73
2023-05-18T06:26:32.645Z,101257.53
2023-05-18T06:31:35.745Z,101260.14
2023-05-18T06:36:39.261Z,101264.33
2023-05-18T06:41:42.567Z,101272.11
2023-05-18T06:46:47.751Z,101265.16
2023-05-18T06:51:50.835Z,101276.38
2023-05-18T06:56:53.792Z,101271.09
2023-05-18T07:01:57.026Z,101272.92
2023-05-18T07:07:00.294Z,101276.63
2023-05-18T07:12:03.582Z,101281.11
2023-05-18T07:17:07.195Z,101285.01
2023-05-18T07:22:10.309Z,101289.20
2023-05-18T07:27:13.417Z,101288.91
2023-05-18T07:32:16.768Z,101290.05
2023-05-18T07:37:19.937Z,101299.77
2023-05-18T07:42:22.946Z,101296.59
2023-05-18T07:47:25.970Z,101299.24
2023-05-18T07:52:29.184Z,101305.13
2023-05-18T07:57:32.275Z,101303.58
2023-05-18T08:02:35.433Z,101311.11
2023-05-18T08:07:38.823Z,101312.02
2023-05-18T08:12:41.908Z,101314.58
2023-05-18T08:17:44.977Z,101307.13
2023-05-18T08:22:48.131Z,101308.15
2023-05-18T08:27:51.440Z,101303.01
2023-05-18T08:32:54.689Z,101303.98
2023-05-18T08:37:57.862Z,101303.35
2023-05-18T08:43:33.572Z,101301.75
2023-05-18T08:48:36.925Z,101297.60
2023-05-18T08:53:41.199Z,101301.44
2023-05-18T08:58:50.648Z,101309.15
2023-05-18T09:03:54.463Z,101298.35
2023-05-18T09:08:58.710Z,101313.98
2023-05-18T09:14:02.337Z,101309.50
2023-05-18T09:19:05.680Z,101309.59
2023-05-18T09:24:08.951Z,101311.34
2023-05-18T09:29:22.682Z,101322.00
2023-05-18T09:34:39.027Z,101322.16
2023-05-18T09:39:42.441Z,101318.68
2023-05-18T09:44:46.471Z,101321.47
2023-05-18T09:49:49.582Z,101321.92
2023-05-18T09:55:01.024Z,101319.84
2023-05-18T10:00:10.651Z,101321.52
2023-05-18T10:05:21.550Z,101323.33
2023-05-18T10:10:27.843Z,101316.63
2023-05-18T10:15:31.111Z,101314.50
2023-05-18T10:20:34.869Z,101318.02
2023-05-18T10:25:38.636Z,101306.55
2023-05-18T10:30:42.737Z,101297.71
2023-05-18T10:35:49.440Z,101298.05
2023-05-18T10:40:54.951Z,101305.98
2023-05-18T10:46:00.922Z,101300.60
2023-05-18T10:51:07.316Z,101294.34
2023-05-18T10:56:10.912Z,101298.11
2023-05-18T11:01:15.519Z,101312.34
2023-05-18T11:06:24.586Z,101301.34
2023-05-18T11:11:30.844Z,101297.05
2023-05-18T11:16:36.082Z,101297.20
2023-05-18T11:21:41.975Z,101293.17
2023-05-18T11:26:47.077Z,101291.27
2023-05-18T11:31:54.565Z,101294.51
2023-05-18T11:36:57.891Z,101292.89
2023-05-18T11:42:05.693Z,101295.73
2023-05-18T11:47:11.950Z,101294.95
2023-05-18T11:52:22.378Z,101299.60
2023-05-18T11:57:34.459Z,101292.90
2023-05-18T12:02:38.366Z,101292.79
2023-05-18T12:07:42.861Z,101296.63
2023-05-18T12:12:49.474Z,101294.11
2023-05-18T12:17:52.707Z,101294.11
2023-05-18T12:22:56.547Z,101294.29
2023-05-18T12:28:01.397Z,101295.97
2023-05-18T12:33:04.784Z,101295.23
2023-05-18T12:38:08.048Z,101300.93
2023-05-18T12:43:11.239Z,101289.52
2023-05-18T12:48:15.260Z,101291.77
2023-05-18T12:53:19.206Z,101293.98
2023-05-18T12:58:22.417Z,101286.65
2023-05-18T13:03:25.617Z,101283.22
2023-05-18T13:08:28.951Z,101280.02
2023-05-18T13:13:32.354Z,101282.31
2023-05-18T13:18:35.499Z,101282.64
2023-05-18T13:23:39.598Z,101290.82
2023-05-18T13:28:42.599Z,101281.34
2023-05-18T13:33:46.230Z,101282.64
2023-05-18T13:38:49.435Z,101275.20
2023-05-18T13:43:52.432Z,101282.34
2023-05-18T13:48:55.454Z,101273.32
2023-05-18T13:53:58.661Z,101277.00
2023-05-18T13:59:02.290Z,101275.31
2023-05-18T14:04:05.490Z,101264.89
2023-05-18T14:09:08.500Z,101273.29
2023-05-18T14:14:11.504Z,101274.27
2023-05-18T14:19:14.593Z,101276.31
2023-05-18T14:24:17.817Z,101268.77
2023-05-18T14:29:21.051Z,101259.35
2023-05-18T14:34:24.041Z,101270.91
2023-05-18T14:39:27.136Z,101274.13
2023-05-18T14:44:30.000Z,101263.65
2023-05-18T14:49:33.366Z,101268.77
2023-05-18T14:54:36.879Z,101275.40
2023-05-18T14:59:39.894Z,101267.93
2023-05-18T15:04:42.998Z,101264.60
2023-05-18T15:09:46.005Z,101259.27
2023-05-18T15:14:49.416Z,101261.84
2023-05-18T15:19:52.322Z,101258.65
2023-05-18T15:24:55.532Z,101260.91
2023-05-18T15:29:58.540Z,101250.30
2023-05-18T15:35:01.489Z,101258.58
2023-05-18T15:40:05.701Z,101259.09
2023-05-18T15:45:09.606Z,101253.08
2023-05-18T15:50:13.754Z,101250.38
2023-05-18T15:55:16.762Z,101251.83
2023-05-18T16:00:22.521Z,101256.81
2023-05-18T16:05:25.534Z,101253.66
2023-05-18T16:10:28.672Z,101253.52
2023-05-18T16:15:35.951Z,101257.38
2023-05-18T16:20:38.952Z,101258.73
2023-05-18T16:25:42.369Z,101265.18
2023-05-18T16:30:45.473Z,101266.85
2023-05-18T16:35:48.596Z,101269.02
2023-05-18T16:40:51.590Z,101267.23
2023-05-18T16:45:54.852Z,101274.47
2023-05-18T16:50:58.014Z,101275.57
2023-05-18T16:56:01.577Z,101279.93
2023-05-18T17:01:12.634Z,101280.55
2023-05-18T17:06:23.205Z,101279.58
2023-05-18T17:11:27.040Z,101283.47
2023-05-18T17:16:30.558Z,101285.59
2023-05-18T17:21:33.867Z,101294.05
2023-05-18T17:26:36.893Z,101295.09
2023-05-18T17:31:39.932Z,101293.85
2023-05-18T17:36:43.097Z,101301.60
2023-05-18T17:41:46.312Z,101307.48
2023-05-18T17:46:49.740Z,101312.67
2023-05-18T17:51:52.975Z,101314.51
2023-05-18T17:56:57.032Z,101318.61
2023-05-18T18:02:00.115Z,101328.64
2023-05-18T18:07:03.701Z,101335.30
2023-05-18T18:12:07.264Z,101335.29
2023-05-18T18:17:10.438Z,101343.15
2023-05-18T18:22:13.669Z,101347.64
2023-05-18T18:27:19.887Z,101353.19
2023-05-18T18:32:23.100Z,101354.48
2023-05-18T18:37:27.478Z,101361.38
2023-05-18T18:42:30.987Z,101364.43
2023-05-18T18:47:34.285Z,101368.19
2023-05-18T18:52:37.311Z,101376.46
2023-05-18T18:57:40.416Z,101381.60
2023-05-18T19:02:43.585Z,101389.71
2023-05-18T19:07:47.044Z,101402.01
2023-05-18T19:12:50.171Z,101401.86
2023-05-18T19:17:54.145Z,101406.45
2023-05-18T19:22:57.406Z,101412.23
2023-05-18T19:28:00.719Z,101414.00
2023-05-18T19:33:04.042Z,101410.70
2023-05-18T19:38:07.144Z,101415.61
2023-05-18T19:43:10.240Z,101420.16
2023-05-18T19:48:14.259Z,101426.11
2023-05-18T19:53:18.095Z,101430.64
2023-05-18T19:58:22.023Z,101431.67
2023-05-18T20:03:26.613Z,101438.83
2023-05-18T20:08:29.777Z,101439.86
2023-05-18T20:13:33.168Z,101446.14
2023-05-18T20:18:36.457Z,101448.91
2023-05-18T20:23:39.833Z,101448.19
2023-05-18T20:28:43.153Z,101458.65
2023-05-18T20:33:47.063Z,101461.60
2023-05-18T20:38:50.389Z,101469.08
2023-05-18T20:43:53.995Z,101466.61
2023-05-18T20:48:57.209Z,101475.66
2023-05-18T20:54:00.200Z,101482.96
2023-05-18T20:59:06.122Z,101483.98
2023-05-18T21:04:12.491Z,101491.46
2023-05-18T21:09:17.625Z,101490.92
2023-05-18T21:14:20.740Z,101497.52
2023-05-18T21:19:23.773Z,101501.52
2023-05-18T21:24:26.965Z,101506.20
2023-05-18T21:29:29.968Z,101506.67
2023-05-18T21:34:33.199Z,101504.70
2023-05-18T21:39:36.484Z,101509.52
2023-05-18T21:44:39.501Z,101510.00
2023-05-18T21:49:42.821Z,101513.64
2023-05-18T21:54:45.928Z,101508.52
2023-05-18T21:59:49.139Z,101513.90
2023-05-18T22:04:52.156Z,101511.21
2023-05-18T22:09:55.149Z,101507.86
2023-05-18T22:14:58.364Z,101512.53
2023-05-18T22:20:01.391Z,101507.23
2023-05-18T22:25:04.593Z,101507.70
2023-05-18T22:30:08.830Z,101503.47
2023-05-18T22:35:11.821Z,101499.61
2023-05-18T22:40:14.840Z,101498.71
2023-05-18T22:45:17.830Z,101495.71
2023-05-18T22:50:21.562Z,101500.05
2023-05-18T22:55:24.657Z,101500.36
2023-05-18T23:00:27.782Z,101501.71
2023-05-18T23:05:32.867Z,101493.13
2023-05-18T23:10:36.558Z,101492.95
2023-05-18T23:15:41.709Z,101486.81
2023-05-18T23:20:45.335Z,101487.66
2023-05-18T23:25:48.333Z,101483.45
2023-05-18T23:30:51.339Z,101481.83
2023-05-18T23:35:56.496Z,101477.42
2023-05-18T23:40:59.610Z,101478.61
2023-05-18T23:46:03.351Z,101480.85
2023-05-18T23:51:11.201Z,101477.16
2023-05-18T23:56:15.412Z,101476.79
